Terminal Aerodrome Forecast
Issued by NWS Mt. Holly, NJ

Home | Current Version | Previous Version | Text Only | Print | Product List | Glossary On
Versions: 1 2 3 4 5 6 7 8 9 10 11 12 13 14 15 16 17 18 19 20
332
FTUS41 KPHI 301137
TAFILG
TAF
KILG 301137Z 3012/0112 04015G25KT P6SM -RA OVC008
      TEMPO 3012/3015 2SM RADZ BR
     FM010000 05008KT P6SM OVC007=

USA.gov is the U.S. government's official web portal to all federal, state and local government web resources and services.